createdAt,value
2022-08-05T00:00:25.895Z,8.93
2022-08-05T00:02:54.041Z,9.30
2022-08-05T00:05:27.167Z,9.15
2022-08-05T00:08:32.460Z,9.45
2022-08-05T00:11:00.694Z,13.23
2022-08-05T00:13:38.941Z,11.95
2022-08-05T00:16:10.861Z,9.20
2022-08-05T00:18:44.489Z,11.05
2022-08-05T00:21:14.468Z,11.95
2022-08-05T00:23:46.873Z,11.05
2022-08-05T00:26:22.377Z,10.07
2022-08-05T00:28:51.150Z,9.50
2022-08-05T00:31:53.591Z,11.00
2022-08-05T00:34:54.485Z,10.90
2022-08-05T00:37:11.391Z,10.75
2022-08-05T00:39:57.173Z,17.48
2022-08-05T00:42:32.785Z,10.88
2022-08-05T00:45:01.207Z,15.32
2022-08-05T00:47:53.337Z,10.98
2022-08-05T00:50:18.647Z,10.57
2022-08-05T00:52:49.017Z,10.07
2022-08-05T00:55:16.880Z,12.57
2022-08-05T00:57:58.554Z,11.80
2022-08-05T01:00:28.383Z,11.02
2022-08-05T01:02:59.864Z,11.18
2022-08-05T01:05:28.280Z,14.82
2022-08-05T01:08:41.597Z,11.60
2022-08-05T01:10:51.699Z,11.13
2022-08-05T01:13:57.734Z,12.43
2022-08-05T01:16:26.215Z,11.45
2022-08-05T01:19:00.891Z,11.02
2022-08-05T01:21:50.468Z,13.88
2022-08-05T01:24:38.749Z,11.48
2022-08-05T01:27:19.207Z,14.05
2022-08-05T01:29:53.699Z,12.20
2022-08-05T01:32:27.643Z,11.75
2022-08-05T01:34:59.678Z,10.80
2022-08-05T01:37:36.952Z,12.57
2022-08-05T01:40:14.074Z,11.90
2022-08-05T01:42:48.498Z,17.10
2022-08-05T01:45:19.417Z,11.90
2022-08-05T01:47:50.581Z,12.48
2022-08-05T01:50:28.569Z,12.25
2022-08-05T01:53:01.344Z,11.30
2022-08-05T01:55:36.264Z,12.50
2022-08-05T01:58:10.897Z,16.23
2022-08-05T02:00:50.184Z,12.55
2022-08-05T02:03:29.011Z,12.38
2022-08-05T02:06:03.369Z,11.63
2022-08-05T02:08:32.357Z,11.82
2022-08-05T02:11:06.190Z,13.32
2022-08-05T02:13:53.811Z,14.02
2022-08-05T02:16:27.616Z,11.75
2022-08-05T02:19:00.083Z,11.60
2022-08-05T02:21:40.320Z,13.18
2022-08-05T02:24:23.238Z,10.75
2022-08-05T02:26:55.538Z,11.43
2022-08-05T02:29:59.556Z,10.90
2022-08-05T02:32:23.833Z,11.90
2022-08-05T02:34:59.204Z,16.10
2022-08-05T02:37:34.255Z,10.85
2022-08-05T02:40:04.531Z,11.55
2022-08-05T02:42:38.869Z,10.60
2022-08-05T02:45:10.356Z,11.02
2022-08-05T02:48:06.711Z,11.57
2022-08-05T02:50:30.121Z,11.38
2022-08-05T02:52:59.138Z,14.25
2022-08-05T02:55:54.885Z,12.50
2022-08-05T02:58:17.956Z,13.48
2022-08-05T03:00:50.920Z,11.82
2022-08-05T03:03:23.607Z,12.10
2022-08-05T03:06:56.883Z,12.27
2022-08-05T03:08:43.308Z,13.23
2022-08-05T03:11:53.199Z,12.10
2022-08-05T03:14:08.379Z,13.02
2022-08-05T03:16:36.433Z,13.43
2022-08-05T03:19:12.655Z,14.57
2022-08-05T03:21:48.863Z,13.70
2022-08-05T03:24:29.341Z,13.68
2022-08-05T03:26:58.180Z,13.07
2022-08-05T03:29:45.880Z,14.10
2022-08-05T03:32:15.573Z,13.15
2022-08-05T03:34:50.714Z,13.25
2022-08-05T03:37:21.127Z,13.13
2022-08-05T03:40:00.877Z,13.77
2022-08-05T03:42:32.912Z,13.57
2022-08-05T03:45:21.880Z,14.77
2022-08-05T03:47:51.507Z,13.70
2022-08-05T03:50:21.626Z,13.95
2022-08-05T03:55:06.741Z,15.23
2022-08-05T03:56:12.053Z,12.55
2022-08-05T03:58:45.954Z,13.20
2022-08-05T04:01:20.696Z,16.08
2022-08-05T04:04:09.227Z,13.38
2022-08-05T04:06:42.805Z,17.55
2022-08-05T04:09:20.257Z,15.43
2022-08-05T04:11:54.331Z,13.70
2022-08-05T04:14:29.517Z,15.88
2022-08-05T04:16:59.611Z,16.45
2022-08-05T04:19:28.562Z,16.17
2022-08-05T04:22:09.046Z,16.75
2022-08-05T04:24:44.065Z,19.85
2022-08-05T04:27:13.686Z,18.88
2022-08-05T04:29:42.051Z,18.40
2022-08-05T04:32:10.915Z,25.58
2022-08-05T04:34:42.668Z,23.40
2022-08-05T04:37:20.766Z,27.23
2022-08-05T04:39:59.443Z,25.23
2022-08-05T04:42:27.517Z,34.25
2022-08-05T04:44:55.395Z,35.67
2022-08-05T04:47:23.438Z,27.83
2022-08-05T04:50:02.733Z,30.25
2022-08-05T04:52:40.273Z,31.10
2022-08-05T04:55:14.254Z,33.05
2022-08-05T04:57:47.744Z,31.08
2022-08-05T05:00:23.686Z,30.40
2022-08-05T05:02:52.473Z,34.47
2022-08-05T05:05:28.056Z,40.75
2022-08-05T05:08:02.404Z,41.80
2022-08-05T05:10:33.295Z,49.30
2022-08-05T05:13:03.644Z,37.40
2022-08-05T05:16:01.851Z,37.00
2022-08-05T05:18:28.753Z,38.28
2022-08-05T05:21:02.004Z,38.80
2022-08-05T05:23:39.310Z,38.38
2022-08-05T05:26:28.619Z,40.25
2022-08-05T05:29:01.208Z,36.83
2022-08-05T05:34:02.338Z,46.75
2022-08-05T05:36:31.455Z,43.85
2022-08-05T05:39:03.799Z,36.50
2022-08-05T05:41:40.468Z,37.70
2022-08-05T05:44:36.898Z,34.90
2022-08-05T05:46:58.434Z,34.70
2022-08-05T05:49:31.974Z,35.05
2022-08-05T05:52:01.505Z,30.35
2022-08-05T05:54:50.128Z,28.63
2022-08-05T05:57:19.546Z,29.52
2022-08-05T05:59:49.011Z,26.27
2022-08-05T06:02:17.243Z,28.10
2022-08-05T06:05:01.397Z,26.38
2022-08-05T06:07:41.274Z,24.80
2022-08-05T06:10:12.784Z,23.88
2022-08-05T06:12:42.192Z,22.30
2022-08-05T06:15:23.728Z,28.00
2022-08-05T06:17:54.483Z,24.65
2022-08-05T06:20:23.149Z,22.15
2022-08-05T06:22:51.344Z,20.58
2022-08-05T06:25:24.527Z,22.88
2022-08-05T06:28:12.585Z,22.92
2022-08-05T06:30:49.676Z,21.88
2022-08-05T06:33:19.387Z,23.02
2022-08-05T06:36:06.972Z,21.77
2022-08-05T06:38:37.874Z,21.60
2022-08-05T06:41:08.345Z,19.00
2022-08-05T06:43:57.782Z,22.73
2022-08-05T06:46:30.123Z,19.20
2022-08-05T06:48:59.487Z,23.08
2022-08-05T06:51:30.072Z,20.67
2022-08-05T06:54:02.178Z,20.27
2022-08-05T06:56:34.762Z,17.83
2022-08-05T06:59:03.201Z,15.48
2022-08-05T07:01:32.405Z,16.52
2022-08-05T07:04:01.498Z,16.45
2022-08-05T07:06:31.908Z,12.73
2022-08-05T07:09:04.101Z,15.38
2022-08-05T07:11:36.940Z,11.13
2022-08-05T07:14:29.739Z,10.13
2022-08-05T07:17:58.470Z,8.65
2022-08-05T07:20:34.053Z,12.57
2022-08-05T07:22:38.997Z,9.63
2022-08-05T07:25:21.780Z,9.65
2022-08-05T07:27:58.296Z,9.23
2022-08-05T07:30:32.723Z,9.07
2022-08-05T07:33:01.687Z,8.32
2022-08-05T07:36:02.307Z,7.70
2022-08-05T07:38:26.241Z,10.65
2022-08-05T07:42:08.288Z,13.25
2022-08-05T07:43:53.153Z,7.40
2022-08-05T07:46:25.978Z,10.45
2022-08-05T07:49:02.328Z,7.57
2022-08-05T07:51:40.716Z,8.90
2022-08-05T07:54:11.431Z,6.72
2022-08-05T07:57:00.760Z,6.97
2022-08-05T07:59:39.076Z,6.25
2022-08-05T08:02:15.220Z,6.20
2022-08-05T08:04:44.875Z,7.72
2022-08-05T08:07:13.436Z,8.30
2022-08-05T08:09:41.362Z,5.28
2022-08-05T08:12:20.978Z,5.32
2022-08-05T08:15:02.522Z,5.63
2022-08-05T08:17:31.794Z,6.43
2022-08-05T08:20:21.167Z,4.20
2022-08-05T08:22:52.563Z,4.07
2022-08-05T08:25:27.101Z,5.45
2022-08-05T08:28:18.467Z,5.38
2022-08-05T08:30:58.066Z,3.85
2022-08-05T08:33:28.011Z,3.95
2022-08-05T08:36:12.973Z,4.10
2022-08-05T08:38:53.128Z,3.72
2022-08-05T08:41:25.920Z,3.60
2022-08-05T08:45:24.012Z,4.07
2022-08-05T08:46:48.260Z,3.80
2022-08-05T08:50:05.787Z,3.80
2022-08-05T08:52:14.394Z,3.63
2022-08-05T08:54:44.588Z,3.58
2022-08-05T08:57:14.001Z,3.88
2022-08-05T08:59:47.183Z,3.47
2022-08-05T09:02:21.212Z,4.70
2022-08-05T09:05:16.392Z,3.33
2022-08-05T09:07:57.431Z,3.95
2022-08-05T09:10:27.140Z,3.10
2022-08-05T09:13:04.934Z,3.17
2022-08-05T09:15:36.755Z,3.33
2022-08-05T09:18:08.675Z,3.45
2022-08-05T09:20:38.295Z,3.55
2022-08-05T09:23:18.677Z,2.83
2022-08-05T09:26:02.045Z,5.82
2022-08-05T09:28:34.349Z,3.67
2022-08-05T09:31:18.109Z,4.53
2022-08-05T09:33:58.635Z,3.72
2022-08-05T09:36:54.323Z,3.20
2022-08-05T09:39:41.829Z,3.22
2022-08-05T09:42:23.391Z,4.55
2022-08-05T09:44:57.154Z,2.85
2022-08-05T09:47:48.051Z,3.78
2022-08-05T09:50:37.361Z,2.30
2022-08-05T09:53:07.058Z,3.80
2022-08-05T09:55:56.403Z,2.70
2022-08-05T09:58:29.195Z,3.13
2022-08-05T10:01:00.568Z,3.90
2022-08-05T10:03:56.909Z,2.50
2022-08-05T10:06:20.879Z,2.70
2022-08-05T10:08:53.806Z,2.78
2022-08-05T10:11:22.911Z,3.03
2022-08-05T10:13:54.711Z,2.80
2022-08-05T10:16:31.262Z,3.35
2022-08-05T10:19:00.774Z,3.00
2022-08-05T10:21:35.303Z,3.53
2022-08-05T10:24:10.748Z,4.05
2022-08-05T10:26:51.277Z,3.30
2022-08-05T10:29:23.640Z,2.65
2022-08-05T10:33:00.749Z,3.30
2022-08-05T10:35:01.021Z,2.90
2022-08-05T10:37:40.424Z,3.38
2022-08-05T10:40:28.134Z,2.97
2022-08-05T10:43:04.698Z,3.15
2022-08-05T10:45:41.682Z,2.80
2022-08-05T10:48:52.343Z,3.10
2022-08-05T10:51:28.764Z,3.20
2022-08-05T10:54:01.908Z,4.55
2022-08-05T10:56:45.821Z,4.68
2022-08-05T11:00:04.430Z,3.30
2022-08-05T11:02:14.469Z,3.22
2022-08-05T11:04:59.219Z,3.08
2022-08-05T11:07:33.117Z,2.90
2022-08-05T11:10:27.608Z,6.20
2022-08-05T11:12:58.286Z,6.63
2022-08-05T11:15:59.394Z,7.15
2022-08-05T11:18:30.174Z,5.22
2022-08-05T11:21:02.837Z,5.75
2022-08-05T11:24:05.500Z,5.43
2022-08-05T11:26:29.013Z,5.75
2022-08-05T11:29:12.007Z,5.43
2022-08-05T11:31:56.766Z,5.45
2022-08-05T11:34:52.095Z,5.32
2022-08-05T11:38:31.029Z,5.68
2022-08-05T11:41:35.699Z,5.35
2022-08-05T11:44:07.080Z,5.32
2022-08-05T11:46:37.997Z,5.93
2022-08-05T11:49:26.124Z,6.60
2022-08-05T11:51:54.618Z,5.63
2022-08-05T11:54:34.007Z,5.80
2022-08-05T11:57:08.458Z,5.47
2022-08-05T11:59:53.537Z,5.75
2022-08-05T12:02:30.097Z,5.88
2022-08-05T12:05:07.027Z,5.32
2022-08-05T12:08:07.462Z,6.50
2022-08-05T12:10:43.589Z,5.32
2022-08-05T12:13:16.450Z,5.72
2022-08-05T12:15:49.880Z,7.25
2022-08-05T12:18:20.768Z,5.70
2022-08-05T12:20:52.703Z,8.77
2022-08-05T12:23:20.764Z,5.95
2022-08-05T12:25:56.945Z,7.80
2022-08-05T12:28:33.793Z,8.48
2022-08-05T12:31:03.698Z,9.18
2022-08-05T12:33:36.651Z,8.88
2022-08-05T12:36:09.002Z,14.85
2022-08-05T12:38:39.596Z,12.23
2022-08-05T12:41:13.803Z,11.80
2022-08-05T12:43:58.455Z,15.55
2022-08-05T12:46:31.241Z,20.52
2022-08-05T12:49:01.157Z,19.23
2022-08-05T12:52:13.716Z,19.13
2022-08-05T12:54:33.683Z,20.77
2022-08-05T12:57:04.005Z,25.10
2022-08-05T13:00:08.214Z,23.52
2022-08-05T13:02:39.892Z,20.48
2022-08-05T13:05:11.252Z,25.95
2022-08-05T13:08:00.287Z,27.65
2022-08-05T13:10:32.218Z,23.70
2022-08-05T13:13:00.506Z,28.05
2022-08-05T13:15:41.795Z,26.65
2022-08-05T13:18:20.634Z,26.42
2022-08-05T13:20:50.072Z,24.98
2022-08-05T13:23:22.395Z,22.45
2022-08-05T13:25:59.655Z,23.27
2022-08-05T13:28:32.328Z,19.95
2022-08-05T13:31:11.132Z,20.42
2022-08-05T13:34:22.858Z,18.25
2022-08-05T13:36:31.682Z,18.05
2022-08-05T13:38:59.610Z,17.02
2022-08-05T13:41:36.065Z,16.67
2022-08-05T13:44:06.301Z,16.10
2022-08-05T13:46:50.805Z,16.42
2022-08-05T13:49:24.038Z,16.15
2022-08-05T13:51:52.079Z,16.65
2022-08-05T13:54:25.137Z,16.55
2022-08-05T13:56:54.590Z,17.95
2022-08-05T13:59:27.008Z,17.73
2022-08-05T14:01:59.005Z,16.70
2022-08-05T14:04:49.219Z,14.23
2022-08-05T14:07:25.715Z,16.17
2022-08-05T14:10:08.627Z,20.48
2022-08-05T14:12:37.045Z,19.10
2022-08-05T14:16:04.795Z,19.77
2022-08-05T14:17:54.898Z,17.98
2022-08-05T14:20:29.613Z,19.40
2022-08-05T14:22:58.250Z,21.48
2022-08-05T14:25:28.381Z,19.20
2022-08-05T14:27:58.641Z,21.55
2022-08-05T14:30:28.073Z,22.52
2022-08-05T14:32:57.065Z,25.27
2022-08-05T14:35:37.039Z,26.63
2022-08-05T14:38:31.735Z,30.20
2022-08-05T14:41:05.851Z,28.90
2022-08-05T14:44:01.905Z,29.35
2022-08-05T14:46:28.423Z,25.83
2022-08-05T14:49:03.442Z,29.70
2022-08-05T14:51:36.191Z,31.25
2022-08-05T14:54:28.458Z,35.92
2022-08-05T14:56:55.936Z,33.42
2022-08-05T14:59:24.447Z,32.65
2022-08-05T15:01:53.798Z,28.85
2022-08-05T15:04:23.693Z,35.45
2022-08-05T15:06:57.015Z,29.08
2022-08-05T15:09:52.403Z,25.30
2022-08-05T15:12:27.025Z,25.92
2022-08-05T15:14:56.109Z,27.70
2022-08-05T15:17:46.789Z,26.48
2022-08-05T15:20:17.183Z,29.73
2022-08-05T15:22:54.238Z,28.83
2022-08-05T15:25:52.968Z,23.40
2022-08-05T15:28:16.178Z,25.77
2022-08-05T15:30:45.757Z,23.40
2022-08-05T15:33:56.864Z,22.98
2022-08-05T15:36:04.013Z,23.15
2022-08-05T15:38:35.815Z,20.83
2022-08-05T15:41:23.210Z,20.90
2022-08-05T15:43:52.471Z,18.63
2022-08-05T15:46:24.627Z,15.45
2022-08-05T15:49:00.671Z,15.30
2022-08-05T15:52:04.023Z,11.02
2022-08-05T15:54:18.655Z,11.73
2022-08-05T15:56:48.797Z,9.77
2022-08-05T15:59:21.719Z,9.30
2022-08-05T16:01:52.363Z,7.25
2022-08-05T16:04:25.126Z,6.68
2022-08-05T16:06:55.580Z,7.03
2022-08-05T16:09:23.946Z,5.60
2022-08-05T16:11:54.327Z,5.03
2022-08-05T16:14:22.741Z,5.95
2022-08-05T16:16:51.006Z,5.05
2022-08-05T16:20:03.754Z,5.78
2022-08-05T16:22:10.672Z,5.85
2022-08-05T16:24:41.897Z,7.03
2022-08-05T16:27:46.897Z,6.00
2022-08-05T16:30:25.918Z,5.28
2022-08-05T16:32:55.090Z,5.57
2022-08-05T16:35:28.101Z,5.88
2022-08-05T16:38:15.435Z,4.18
2022-08-05T16:40:51.700Z,4.18
2022-08-05T16:43:26.692Z,3.85
2022-08-05T16:46:04.011Z,3.92
2022-08-05T16:48:41.000Z,3.92
2022-08-05T16:51:10.772Z,4.72
2022-08-05T16:54:03.089Z,3.83
2022-08-05T16:56:30.170Z,4.32
2022-08-05T16:59:00.886Z,3.72
2022-08-05T17:01:53.957Z,3.90
2022-08-05T17:04:21.045Z,3.55
2022-08-05T17:06:53.103Z,4.20
2022-08-05T17:09:22.979Z,4.93
2022-08-05T17:11:55.918Z,3.40
2022-08-05T17:14:37.422Z,3.63
2022-08-05T17:17:14.289Z,3.80
2022-08-05T17:19:46.147Z,6.32
2022-08-05T17:22:17.870Z,3.78
2022-08-05T17:24:57.921Z,4.70
2022-08-05T17:27:34.306Z,4.40
2022-08-05T17:30:12.265Z,5.38
2022-08-05T17:32:47.157Z,4.45
2022-08-05T17:35:20.926Z,3.80
2022-08-05T17:37:50.558Z,4.00
2022-08-05T17:40:22.539Z,6.13
2022-08-05T17:42:53.165Z,4.20
2022-08-05T17:45:29.557Z,4.45
2022-08-05T17:48:07.985Z,4.07
2022-08-05T17:50:36.562Z,4.07
2022-08-05T17:53:08.450Z,3.83
2022-08-05T17:55:37.898Z,5.95
2022-08-05T17:58:11.153Z,3.92
2022-08-05T18:00:45.339Z,4.05
2022-08-05T18:06:11.935Z,4.63
2022-08-05T18:08:44.231Z,4.88
2022-08-05T18:11:23.663Z,4.10
2022-08-05T18:14:04.284Z,4.50
2022-08-05T18:16:51.468Z,5.35
2022-08-05T18:19:22.675Z,5.07
2022-08-05T18:22:09.801Z,5.22
2022-08-05T18:24:39.926Z,5.47
2022-08-05T18:27:12.809Z,4.70
2022-08-05T18:29:53.720Z,5.07
2022-08-05T18:32:28.063Z,4.95
2022-08-05T18:34:57.914Z,5.10
2022-08-05T18:37:34.198Z,5.20
2022-08-05T18:40:34.288Z,5.10
2022-08-05T18:42:57.928Z,4.05
2022-08-05T18:45:41.311Z,4.07
2022-08-05T18:48:30.559Z,5.32
2022-08-05T18:52:05.516Z,5.38
2022-08-05T18:54:06.670Z,4.13
2022-08-05T18:56:38.036Z,4.03
2022-08-05T18:59:41.867Z,3.92
2022-08-05T19:01:56.969Z,4.85
2022-08-05T19:04:29.346Z,4.13
2022-08-05T19:06:57.613Z,4.63
2022-08-05T19:09:25.469Z,3.38
2022-08-05T19:12:00.458Z,5.00
2022-08-05T19:14:44.465Z,4.25
2022-08-05T19:17:18.100Z,4.45
2022-08-05T19:19:48.881Z,6.05
2022-08-05T19:22:17.785Z,5.15
2022-08-05T19:24:54.563Z,6.88
2022-08-05T19:27:30.443Z,7.05
2022-08-05T19:29:58.774Z,6.72
2022-08-05T19:32:27.714Z,6.47
2022-08-05T19:34:57.875Z,5.85
2022-08-05T19:37:29.848Z,7.47
2022-08-05T19:40:14.977Z,7.95
2022-08-05T19:43:04.787Z,6.45
2022-08-05T19:45:33.357Z,7.18
2022-08-05T19:48:06.007Z,6.70
2022-08-05T19:50:36.821Z,7.47
2022-08-05T19:53:09.611Z,9.35
2022-08-05T19:56:14.311Z,7.85
2022-08-05T19:58:29.368Z,7.35
2022-08-05T20:00:58.113Z,8.95
2022-08-05T20:03:27.377Z,8.43
2022-08-05T20:06:15.603Z,7.03
2022-08-05T20:08:47.459Z,7.82
2022-08-05T20:11:17.949Z,9.48
2022-08-05T20:13:58.980Z,9.02
2022-08-05T20:16:35.581Z,10.55
2022-08-05T20:19:03.766Z,7.38
2022-08-05T20:21:33.080Z,6.32
2022-08-05T20:24:01.427Z,5.95
2022-08-05T20:26:29.588Z,9.13
2022-08-05T20:29:00.680Z,6.68
2022-08-05T20:31:43.062Z,7.38
2022-08-05T20:34:17.934Z,6.57
2022-08-05T20:36:49.985Z,8.05
2022-08-05T20:39:18.158Z,7.43
2022-08-05T20:41:48.163Z,7.93
2022-08-05T20:44:30.612Z,7.57
2022-08-05T20:47:00.272Z,6.10
2022-08-05T20:49:28.608Z,7.30
2022-08-05T20:51:58.727Z,5.45
2022-08-05T20:54:42.758Z,6.75
2022-08-05T20:57:42.763Z,5.40
2022-08-05T21:00:19.873Z,7.72
2022-08-05T21:02:57.849Z,9.10
2022-08-05T21:05:26.002Z,5.53
2022-08-05T21:08:07.957Z,8.35
2022-08-05T21:10:36.167Z,7.30
2022-08-05T21:13:11.098Z,7.10
2022-08-05T21:15:46.153Z,8.70
2022-08-05T21:18:19.110Z,6.13
2022-08-05T21:20:47.238Z,7.00
2022-08-05T21:23:17.064Z,5.90
2022-08-05T21:25:45.592Z,7.75
2022-08-05T21:28:13.779Z,7.78
2022-08-05T21:30:46.669Z,6.78
2022-08-05T21:33:16.467Z,8.68
2022-08-05T21:35:58.581Z,6.70
2022-08-05T21:38:28.850Z,7.45
2022-08-05T21:40:56.802Z,6.63
2022-08-05T21:43:26.104Z,7.65
2022-08-05T21:46:01.834Z,9.43
2022-08-05T21:48:32.028Z,6.47
2022-08-05T21:51:01.428Z,17.63
2022-08-05T21:53:31.142Z,8.18
2022-08-05T21:56:09.758Z,9.68
2022-08-05T21:58:57.135Z,7.50
2022-08-05T22:01:26.233Z,8.93
2022-08-05T22:03:54.544Z,6.40
2022-08-05T22:06:36.988Z,8.50
2022-08-05T22:09:13.874Z,6.63
2022-08-05T22:11:46.708Z,6.25
2022-08-05T22:14:34.218Z,6.00
2022-08-05T22:17:07.027Z,7.18
2022-08-05T22:20:01.592Z,7.82
2022-08-05T22:22:28.182Z,8.27
2022-08-05T22:25:21.608Z,8.30
2022-08-05T22:28:09.537Z,9.15
2022-08-05T22:30:44.046Z,8.13
2022-08-05T22:33:57.134Z,10.07
2022-08-05T22:36:14.585Z,9.20
2022-08-05T22:38:43.240Z,11.32
2022-08-05T22:41:12.720Z,6.80
2022-08-05T22:43:43.194Z,7.30
2022-08-05T22:46:13.223Z,6.22
2022-08-05T22:48:43.254Z,9.35
2022-08-05T22:51:22.357Z,6.35
2022-08-05T22:53:51.066Z,5.50
2022-08-05T22:56:30.649Z,5.32
2022-08-05T22:59:03.264Z,5.50
2022-08-05T23:01:50.876Z,5.22
2022-08-05T23:04:20.765Z,7.55
2022-08-05T23:06:48.909Z,5.20
2022-08-05T23:09:27.278Z,3.97
2022-08-05T23:12:06.887Z,3.47
2022-08-05T23:14:34.832Z,3.53
2022-08-05T23:17:24.517Z,1.90
2022-08-05T23:20:03.489Z,3.25
2022-08-05T23:22:31.484Z,1.50
2022-08-05T23:25:01.044Z,3.75
2022-08-05T23:27:31.562Z,1.80
2022-08-05T23:30:11.702Z,1.77
2022-08-05T23:32:40.667Z,2.50
2022-08-05T23:35:13.770Z,1.17
2022-08-05T23:37:41.993Z,1.45
2022-08-05T23:40:12.097Z,3.10
2022-08-05T23:42:41.429Z,2.03
2022-08-05T23:45:16.188Z,2.20
2022-08-05T23:47:47.876Z,1.67
2022-08-05T23:50:17.095Z,3.60
2022-08-05T23:52:49.687Z,2.47
2022-08-05T23:55:19.281Z,2.95
2022-08-05T23:57:51.065Z,2.47
